sensor_id;sensor_type;location;lat;lon;timestamp;P1;durP1;ratioP1;P2;durP2;ratioP2
70322;SDS011;57735;56.264;43.898;2022-12-10T00:00:00;10.20;;;4.05;;
70322;SDS011;57735;56.264;43.898;2022-12-10T00:02:30;12.98;;;5.20;;
70322;SDS011;57735;56.264;43.898;2022-12-10T00:05:01;16.17;;;5.13;;
70322;SDS011;57735;56.264;43.898;2022-12-10T00:07:33;10.73;;;4.35;;
70322;SDS011;57735;56.264;43.898;2022-12-10T00:10:04;13.63;;;5.00;;
70322;SDS011;57735;56.264;43.898;2022-12-10T00:12:35;11.85;;;5.03;;
70322;SDS011;57735;56.264;43.898;2022-12-10T00:15:06;12.32;;;4.43;;
70322;SDS011;57735;56.264;43.898;2022-12-10T00:17:38;12.65;;;4.68;;
70322;SDS011;57735;56.264;43.898;2022-12-10T00:20:09;9.70;;;4.35;;
70322;SDS011;57735;56.264;43.898;2022-12-10T00:22:40;8.70;;;4.13;;
70322;SDS011;57735;56.264;43.898;2022-12-10T00:25:10;14.43;;;4.55;;
70322;SDS011;57735;56.264;43.898;2022-12-10T00:27:44;9.93;;;4.45;;
70322;SDS011;57735;56.264;43.898;2022-12-10T00:30:14;9.23;;;4.40;;
70322;SDS011;57735;56.264;43.898;2022-12-10T00:32:45;8.95;;;4.47;;
70322;SDS011;57735;56.264;43.898;2022-12-10T00:35:16;11.30;;;4.65;;
70322;SDS011;57735;56.264;43.898;2022-12-10T00:37:49;12.35;;;4.75;;
70322;SDS011;57735;56.264;43.898;2022-12-10T00:40:21;10.70;;;4.47;;
70322;SDS011;57735;56.264;43.898;2022-12-10T00:42:52;10.18;;;4.30;;
70322;SDS011;57735;56.264;43.898;2022-12-10T00:45:23;8.77;;;3.58;;
70322;SDS011;57735;56.264;43.898;2022-12-10T00:47:54;14.98;;;4.40;;
70322;SDS011;57735;56.264;43.898;2022-12-10T00:50:26;12.15;;;4.40;;
70322;SDS011;57735;56.264;43.898;2022-12-10T00:52:57;10.00;;;4.28;;
70322;SDS011;57735;56.264;43.898;2022-12-10T00:55:28;6.57;;;2.85;;
70322;SDS011;57735;56.264;43.898;2022-12-10T00:57:59;10.10;;;3.05;;
70322;SDS011;57735;56.264;43.898;2022-12-10T01:00:30;6.63;;;3.47;;
70322;SDS011;57735;56.264;43.898;2022-12-10T01:03:03;9.23;;;3.65;;
70322;SDS011;57735;56.264;43.898;2022-12-10T01:05:34;7.57;;;3.78;;
70322;SDS011;57735;56.264;43.898;2022-12-10T01:08:05;10.90;;;4.38;;
70322;SDS011;57735;56.264;43.898;2022-12-10T01:10:36;13.05;;;4.68;;
70322;SDS011;57735;56.264;43.898;2022-12-10T01:13:07;8.68;;;3.00;;
70322;SDS011;57735;56.264;43.898;2022-12-10T01:15:40;9.45;;;3.63;;
70322;SDS011;57735;56.264;43.898;2022-12-10T01:18:10;18.50;;;4.63;;
70322;SDS011;57735;56.264;43.898;2022-12-10T01:20:44;20.05;;;4.10;;
70322;SDS011;57735;56.264;43.898;2022-12-10T01:23:15;12.45;;;4.32;;
70322;SDS011;57735;56.264;43.898;2022-12-10T01:25:46;12.55;;;4.07;;
70322;SDS011;57735;56.264;43.898;2022-12-10T01:28:16;13.23;;;4.22;;
70322;SDS011;57735;56.264;43.898;2022-12-10T01:30:47;12.05;;;5.07;;
70322;SDS011;57735;56.264;43.898;2022-12-10T01:33:18;12.98;;;3.92;;
70322;SDS011;57735;56.264;43.898;2022-12-10T01:35:49;10.20;;;4.25;;
70322;SDS011;57735;56.264;43.898;2022-12-10T01:38:20;9.70;;;3.78;;
70322;SDS011;57735;56.264;43.898;2022-12-10T01:40:51;8.10;;;3.80;;
70322;SDS011;57735;56.264;43.898;2022-12-10T01:43:21;9.25;;;3.85;;
70322;SDS011;57735;56.264;43.898;2022-12-10T01:45:52;13.93;;;3.30;;
70322;SDS011;57735;56.264;43.898;2022-12-10T01:48:23;7.22;;;3.95;;
70322;SDS011;57735;56.264;43.898;2022-12-10T01:50:54;8.30;;;3.67;;
70322;SDS011;57735;56.264;43.898;2022-12-10T01:53:25;8.27;;;3.35;;
70322;SDS011;57735;56.264;43.898;2022-12-10T01:55:55;6.25;;;2.90;;
70322;SDS011;57735;56.264;43.898;2022-12-10T01:58:26;6.60;;;3.17;;
70322;SDS011;57735;56.264;43.898;2022-12-10T02:04:04;8.93;;;3.35;;
70322;SDS011;57735;56.264;43.898;2022-12-10T02:12:16;9.18;;;3.55;;
70322;SDS011;57735;56.264;43.898;2022-12-10T02:15:36;7.35;;;3.42;;
70322;SDS011;57735;56.264;43.898;2022-12-10T02:17:55;8.55;;;3.05;;
70322;SDS011;57735;56.264;43.898;2022-12-10T02:20:35;6.30;;;3.00;;
70322;SDS011;57735;56.264;43.898;2022-12-10T02:23:15;10.48;;;3.88;;
70322;SDS011;57735;56.264;43.898;2022-12-10T02:32:08;9.85;;;3.78;;
70322;SDS011;57735;56.264;43.898;2022-12-10T02:34:47;5.07;;;2.58;;
70322;SDS011;57735;56.264;43.898;2022-12-10T02:37:22;11.55;;;3.10;;
70322;SDS011;57735;56.264;43.898;2022-12-10T02:40:02;6.82;;;3.58;;
70322;SDS011;57735;56.264;43.898;2022-12-10T02:42:40;7.07;;;3.10;;
70322;SDS011;57735;56.264;43.898;2022-12-10T02:45:13;12.05;;;3.60;;
70322;SDS011;57735;56.264;43.898;2022-12-10T02:47:44;13.88;;;4.80;;
70322;SDS011;57735;56.264;43.898;2022-12-10T02:50:15;12.05;;;4.40;;
70322;SDS011;57735;56.264;43.898;2022-12-10T02:52:49;9.73;;;3.92;;
70322;SDS011;57735;56.264;43.898;2022-12-10T02:55:20;10.50;;;3.88;;
70322;SDS011;57735;56.264;43.898;2022-12-10T03:00:57;10.32;;;4.05;;
70322;SDS011;57735;56.264;43.898;2022-12-10T03:03:38;14.23;;;5.25;;
70322;SDS011;57735;56.264;43.898;2022-12-10T03:06:22;12.70;;;4.43;;
70322;SDS011;57735;56.264;43.898;2022-12-10T03:09:12;15.48;;;4.93;;
70322;SDS011;57735;56.264;43.898;2022-12-10T03:11:56;19.55;;;5.55;;
70322;SDS011;57735;56.264;43.898;2022-12-10T03:14:32;11.73;;;3.50;;
70322;SDS011;57735;56.264;43.898;2022-12-10T03:17:04;14.57;;;4.70;;
70322;SDS011;57735;56.264;43.898;2022-12-10T03:19:36;16.25;;;4.70;;
70322;SDS011;57735;56.264;43.898;2022-12-10T03:22:15;17.48;;;4.80;;
70322;SDS011;57735;56.264;43.898;2022-12-10T03:24:49;19.13;;;5.65;;
70322;SDS011;57735;56.264;43.898;2022-12-10T03:27:23;14.18;;;4.35;;
70322;SDS011;57735;56.264;43.898;2022-12-10T03:29:54;14.93;;;3.55;;
70322;SDS011;57735;56.264;43.898;2022-12-10T03:32:28;10.98;;;4.10;;
70322;SDS011;57735;56.264;43.898;2022-12-10T03:35:00;9.73;;;3.47;;
70322;SDS011;57735;56.264;43.898;2022-12-10T03:37:33;15.43;;;5.18;;
70322;SDS011;57735;56.264;43.898;2022-12-10T03:40:07;29.45;;;8.93;;
70322;SDS011;57735;56.264;43.898;2022-12-10T03:42:40;16.98;;;5.65;;
70322;SDS011;57735;56.264;43.898;2022-12-10T03:45:11;25.50;;;7.22;;
70322;SDS011;57735;56.264;43.898;2022-12-10T03:47:42;31.38;;;8.15;;
70322;SDS011;57735;56.264;43.898;2022-12-10T03:50:12;26.05;;;6.43;;
70322;SDS011;57735;56.264;43.898;2022-12-10T03:52:43;14.57;;;4.10;;
70322;SDS011;57735;56.264;43.898;2022-12-10T03:55:14;17.35;;;3.95;;
70322;SDS011;57735;56.264;43.898;2022-12-10T03:57:45;13.52;;;3.83;;
70322;SDS011;57735;56.264;43.898;2022-12-10T04:00:16;9.07;;;3.30;;
70322;SDS011;57735;56.264;43.898;2022-12-10T04:02:47;9.20;;;3.50;;
70322;SDS011;57735;56.264;43.898;2022-12-10T04:05:20;11.80;;;3.80;;
70322;SDS011;57735;56.264;43.898;2022-12-10T04:07:51;7.03;;;3.50;;
70322;SDS011;57735;56.264;43.898;2022-12-10T04:10:21;14.07;;;4.35;;
70322;SDS011;57735;56.264;43.898;2022-12-10T04:12:52;9.20;;;3.80;;
70322;SDS011;57735;56.264;43.898;2022-12-10T04:15:43;7.13;;;3.17;;
70322;SDS011;57735;56.264;43.898;2022-12-10T04:18:32;11.43;;;3.35;;
70322;SDS011;57735;56.264;43.898;2022-12-10T04:21:03;6.70;;;3.15;;
70322;SDS011;57735;56.264;43.898;2022-12-10T04:23:52;7.22;;;3.25;;
70322;SDS011;57735;56.264;43.898;2022-12-10T04:26:42;7.10;;;3.17;;
70322;SDS011;57735;56.264;43.898;2022-12-10T04:29:26;12.35;;;3.67;;
70322;SDS011;57735;56.264;43.898;2022-12-10T04:31:58;7.25;;;2.97;;
70322;SDS011;57735;56.264;43.898;2022-12-10T04:34:29;8.27;;;3.35;;
70322;SDS011;57735;56.264;43.898;2022-12-10T04:37:03;8.95;;;3.30;;
70322;SDS011;57735;56.264;43.898;2022-12-10T04:39:34;16.42;;;4.65;;
70322;SDS011;57735;56.264;43.898;2022-12-10T04:42:05;9.27;;;3.63;;
70322;SDS011;57735;56.264;43.898;2022-12-10T04:44:37;11.52;;;3.40;;
70322;SDS011;57735;56.264;43.898;2022-12-10T04:47:09;11.48;;;3.65;;
70322;SDS011;57735;56.264;43.898;2022-12-10T04:49:41;8.70;;;3.35;;
70322;SDS011;57735;56.264;43.898;2022-12-10T04:52:13;11.70;;;3.65;;
70322;SDS011;57735;56.264;43.898;2022-12-10T04:54:48;7.57;;;3.53;;
70322;SDS011;57735;56.264;43.898;2022-12-10T04:57:18;10.07;;;3.40;;
70322;SDS011;57735;56.264;43.898;2022-12-10T04:59:49;9.75;;;3.25;;
70322;SDS011;57735;56.264;43.898;2022-12-10T05:02:20;7.53;;;3.42;;
70322;SDS011;57735;56.264;43.898;2022-12-10T05:04:51;9.38;;;3.65;;
70322;SDS011;57735;56.264;43.898;2022-12-10T05:07:22;16.50;;;4.43;;
70322;SDS011;57735;56.264;43.898;2022-12-10T05:09:52;15.15;;;3.88;;
70322;SDS011;57735;56.264;43.898;2022-12-10T05:12:23;16.23;;;4.05;;
70322;SDS011;57735;56.264;43.898;2022-12-10T05:14:54;14.15;;;3.58;;
70322;SDS011;57735;56.264;43.898;2022-12-10T05:17:25;11.32;;;3.63;;
70322;SDS011;57735;56.264;43.898;2022-12-10T05:19:56;8.50;;;3.50;;
70322;SDS011;57735;56.264;43.898;2022-12-10T05:22:26;10.05;;;3.30;;
70322;SDS011;57735;56.264;43.898;2022-12-10T05:25:16;9.43;;;3.08;;
70322;SDS011;57735;56.264;43.898;2022-12-10T05:27:46;8.60;;;3.25;;
70322;SDS011;57735;56.264;43.898;2022-12-10T05:30:17;8.90;;;3.40;;
70322;SDS011;57735;56.264;43.898;2022-12-10T05:32:48;9.77;;;3.38;;
70322;SDS011;57735;56.264;43.898;2022-12-10T05:35:19;7.78;;;3.20;;
70322;SDS011;57735;56.264;43.898;2022-12-10T05:37:50;7.10;;;3.22;;
70322;SDS011;57735;56.264;43.898;2022-12-10T05:40:21;13.45;;;3.42;;
70322;SDS011;57735;56.264;43.898;2022-12-10T05:42:51;9.23;;;3.30;;
70322;SDS011;57735;56.264;43.898;2022-12-10T05:45:25;10.43;;;3.60;;
70322;SDS011;57735;56.264;43.898;2022-12-10T05:47:56;14.93;;;3.97;;
70322;SDS011;57735;56.264;43.898;2022-12-10T05:50:27;16.95;;;4.15;;
70322;SDS011;57735;56.264;43.898;2022-12-10T05:52:58;18.15;;;4.68;;
70322;SDS011;57735;56.264;43.898;2022-12-10T05:55:31;9.07;;;3.25;;
70322;SDS011;57735;56.264;43.898;2022-12-10T05:58:03;14.48;;;3.67;;
70322;SDS011;57735;56.264;43.898;2022-12-10T06:00:41;11.68;;;4.53;;
70322;SDS011;57735;56.264;43.898;2022-12-10T06:03:12;5.30;;;2.67;;
70322;SDS011;57735;56.264;43.898;2022-12-10T06:05:43;9.77;;;3.88;;
70322;SDS011;57735;56.264;43.898;2022-12-10T06:08:13;9.07;;;3.00;;
70322;SDS011;57735;56.264;43.898;2022-12-10T06:10:46;6.15;;;2.60;;
70322;SDS011;57735;56.264;43.898;2022-12-10T06:13:17;7.13;;;2.20;;
70322;SDS011;57735;56.264;43.898;2022-12-10T06:15:48;6.22;;;3.03;;
70322;SDS011;57735;56.264;43.898;2022-12-10T06:18:19;7.75;;;2.92;;
70322;SDS011;57735;56.264;43.898;2022-12-10T06:20:51;8.63;;;3.17;;
70322;SDS011;57735;56.264;43.898;2022-12-10T06:23:21;10.63;;;3.78;;
70322;SDS011;57735;56.264;43.898;2022-12-10T06:25:52;9.02;;;3.08;;
70322;SDS011;57735;56.264;43.898;2022-12-10T06:28:23;9.88;;;2.92;;
70322;SDS011;57735;56.264;43.898;2022-12-10T06:30:54;10.52;;;3.67;;
70322;SDS011;57735;56.264;43.898;2022-12-10T06:33:25;9.45;;;3.80;;
70322;SDS011;57735;56.264;43.898;2022-12-10T06:35:56;8.13;;;3.53;;
70322;SDS011;57735;56.264;43.898;2022-12-10T06:38:26;10.25;;;3.88;;
70322;SDS011;57735;56.264;43.898;2022-12-10T06:40:57;8.90;;;4.05;;
70322;SDS011;57735;56.264;43.898;2022-12-10T06:43:30;7.35;;;3.00;;
70322;SDS011;57735;56.264;43.898;2022-12-10T06:46:05;7.95;;;3.38;;
70322;SDS011;57735;56.264;43.898;2022-12-10T06:48:41;12.48;;;3.47;;
70322;SDS011;57735;56.264;43.898;2022-12-10T06:51:13;10.98;;;4.47;;
70322;SDS011;57735;56.264;43.898;2022-12-10T06:53:44;10.50;;;4.07;;
70322;SDS011;57735;56.264;43.898;2022-12-10T06:56:16;10.75;;;3.67;;
70322;SDS011;57735;56.264;43.898;2022-12-10T06:58:50;9.70;;;3.58;;
70322;SDS011;57735;56.264;43.898;2022-12-10T07:01:22;12.43;;;4.07;;
70322;SDS011;57735;56.264;43.898;2022-12-10T07:03:57;9.93;;;3.10;;
70322;SDS011;57735;56.264;43.898;2022-12-10T07:06:30;6.47;;;2.55;;
70322;SDS011;57735;56.264;43.898;2022-12-10T07:09:01;10.23;;;4.18;;
70322;SDS011;57735;56.264;43.898;2022-12-10T07:11:32;6.60;;;2.83;;
70322;SDS011;57735;56.264;43.898;2022-12-10T07:14:03;8.43;;;3.15;;
70322;SDS011;57735;56.264;43.898;2022-12-10T07:16:35;7.82;;;3.28;;
70322;SDS011;57735;56.264;43.898;2022-12-10T07:19:05;6.47;;;3.28;;
70322;SDS011;57735;56.264;43.898;2022-12-10T07:21:37;8.45;;;3.42;;
70322;SDS011;57735;56.264;43.898;2022-12-10T07:24:13;11.23;;;3.15;;
70322;SDS011;57735;56.264;43.898;2022-12-10T07:26:46;13.30;;;4.13;;
70322;SDS011;57735;56.264;43.898;2022-12-10T07:29:18;10.02;;;4.00;;
70322;SDS011;57735;56.264;43.898;2022-12-10T07:31:50;19.67;;;6.07;;
70322;SDS011;57735;56.264;43.898;2022-12-10T07:34:21;17.88;;;4.90;;
70322;SDS011;57735;56.264;43.898;2022-12-10T07:36:52;21.83;;;6.10;;
70322;SDS011;57735;56.264;43.898;2022-12-10T07:39:22;16.63;;;5.30;;
70322;SDS011;57735;56.264;43.898;2022-12-10T07:41:53;12.23;;;5.75;;
70322;SDS011;57735;56.264;43.898;2022-12-10T07:44:24;10.73;;;4.20;;
70322;SDS011;57735;56.264;43.898;2022-12-10T07:46:56;20.30;;;6.32;;
70322;SDS011;57735;56.264;43.898;2022-12-10T07:49:27;18.75;;;6.70;;
70322;SDS011;57735;56.264;43.898;2022-12-10T07:51:59;14.98;;;5.80;;
70322;SDS011;57735;56.264;43.898;2022-12-10T07:54:30;19.83;;;5.63;;
70322;SDS011;57735;56.264;43.898;2022-12-10T07:57:03;12.60;;;4.82;;
70322;SDS011;57735;56.264;43.898;2022-12-10T07:59:34;15.40;;;4.88;;
70322;SDS011;57735;56.264;43.898;2022-12-10T08:02:05;12.70;;;4.30;;
70322;SDS011;57735;56.264;43.898;2022-12-10T08:04:35;20.77;;;6.90;;
70322;SDS011;57735;56.264;43.898;2022-12-10T08:07:07;20.42;;;6.85;;
70322;SDS011;57735;56.264;43.898;2022-12-10T08:09:38;21.25;;;6.35;;
70322;SDS011;57735;56.264;43.898;2022-12-10T08:12:09;12.65;;;5.13;;
70322;SDS011;57735;56.264;43.898;2022-12-10T08:14:40;19.63;;;6.43;;
70322;SDS011;57735;56.264;43.898;2022-12-10T08:17:13;19.92;;;5.57;;
70322;SDS011;57735;56.264;43.898;2022-12-10T08:19:44;11.30;;;4.00;;
70322;SDS011;57735;56.264;43.898;2022-12-10T08:22:15;14.02;;;4.10;;
70322;SDS011;57735;56.264;43.898;2022-12-10T08:24:46;11.18;;;4.50;;
70322;SDS011;57735;56.264;43.898;2022-12-10T08:27:17;12.30;;;4.75;;
70322;SDS011;57735;56.264;43.898;2022-12-10T08:29:50;16.27;;;5.75;;
70322;SDS011;57735;56.264;43.898;2022-12-10T08:32:21;14.18;;;4.93;;
70322;SDS011;57735;56.264;43.898;2022-12-10T08:34:52;16.58;;;5.13;;
70322;SDS011;57735;56.264;43.898;2022-12-10T08:37:25;15.20;;;5.35;;
70322;SDS011;57735;56.264;43.898;2022-12-10T08:39:56;16.73;;;5.55;;
70322;SDS011;57735;56.264;43.898;2022-12-10T08:42:26;11.35;;;3.92;;
70322;SDS011;57735;56.264;43.898;2022-12-10T08:44:57;9.70;;;4.38;;
70322;SDS011;57735;56.264;43.898;2022-12-10T08:47:28;9.23;;;3.97;;
70322;SDS011;57735;56.264;43.898;2022-12-10T08:49:59;10.32;;;4.85;;
70322;SDS011;57735;56.264;43.898;2022-12-10T08:52:29;15.40;;;5.88;;
70322;SDS011;57735;56.264;43.898;2022-12-10T08:55:00;12.25;;;4.45;;
70322;SDS011;57735;56.264;43.898;2022-12-10T08:57:33;12.07;;;4.88;;
70322;SDS011;57735;56.264;43.898;2022-12-10T09:00:04;14.40;;;4.93;;
70322;SDS011;57735;56.264;43.898;2022-12-10T09:02:36;15.65;;;5.22;;
70322;SDS011;57735;56.264;43.898;2022-12-10T09:05:06;17.48;;;5.18;;
70322;SDS011;57735;56.264;43.898;2022-12-10T09:07:38;14.63;;;5.50;;
70322;SDS011;57735;56.264;43.898;2022-12-10T09:10:09;15.65;;;6.10;;
70322;SDS011;57735;56.264;43.898;2022-12-10T09:12:45;21.52;;;5.63;;
70322;SDS011;57735;56.264;43.898;2022-12-10T09:15:16;17.23;;;5.82;;
70322;SDS011;57735;56.264;43.898;2022-12-10T09:17:46;21.13;;;7.35;;
70322;SDS011;57735;56.264;43.898;2022-12-10T09:20:17;20.83;;;6.97;;
70322;SDS011;57735;56.264;43.898;2022-12-10T09:22:48;13.13;;;5.50;;
70322;SDS011;57735;56.264;43.898;2022-12-10T09:25:19;20.33;;;6.05;;
70322;SDS011;57735;56.264;43.898;2022-12-10T09:27:53;22.55;;;6.70;;
70322;SDS011;57735;56.264;43.898;2022-12-10T09:30:24;15.30;;;5.40;;
70322;SDS011;57735;56.264;43.898;2022-12-10T09:32:55;16.92;;;5.78;;
70322;SDS011;57735;56.264;43.898;2022-12-10T09:35:29;14.90;;;5.20;;
70322;SDS011;57735;56.264;43.898;2022-12-10T09:38:00;13.50;;;5.70;;
70322;SDS011;57735;56.264;43.898;2022-12-10T09:40:36;13.82;;;5.57;;
70322;SDS011;57735;56.264;43.898;2022-12-10T09:45:58;19.27;;;6.18;;
70322;SDS011;57735;56.264;43.898;2022-12-10T09:51:28;12.65;;;5.05;;
70322;SDS011;57735;56.264;43.898;2022-12-10T09:54:02;9.20;;;3.78;;
70322;SDS011;57735;56.264;43.898;2022-12-10T09:56:42;11.38;;;4.40;;
70322;SDS011;57735;56.264;43.898;2022-12-10T09:59:18;8.65;;;3.90;;
70322;SDS011;57735;56.264;43.898;2022-12-10T10:01:59;12.73;;;4.95;;
70322;SDS011;57735;56.264;43.898;2022-12-10T10:04:31;10.88;;;4.70;;
70322;SDS011;57735;56.264;43.898;2022-12-10T10:07:02;15.82;;;5.35;;
70322;SDS011;57735;56.264;43.898;2022-12-10T10:09:36;12.80;;;5.35;;
70322;SDS011;57735;56.264;43.898;2022-12-10T10:12:14;18.25;;;5.78;;
70322;SDS011;57735;56.264;43.898;2022-12-10T10:14:45;16.45;;;5.47;;
70322;SDS011;57735;56.264;43.898;2022-12-10T10:17:33;23.65;;;6.38;;
70322;SDS011;57735;56.264;43.898;2022-12-10T10:20:06;15.32;;;5.95;;
70322;SDS011;57735;56.264;43.898;2022-12-10T10:22:40;17.98;;;5.63;;
70322;SDS011;57735;56.264;43.898;2022-12-10T10:25:15;14.43;;;5.65;;
70322;SDS011;57735;56.264;43.898;2022-12-10T10:27:48;15.80;;;5.15;;
70322;SDS011;57735;56.264;43.898;2022-12-10T10:30:21;14.38;;;5.60;;
70322;SDS011;57735;56.264;43.898;2022-12-10T10:32:54;21.08;;;7.45;;
70322;SDS011;57735;56.264;43.898;2022-12-10T10:35:34;27.03;;;8.27;;
70322;SDS011;57735;56.264;43.898;2022-12-10T10:38:27;17.77;;;7.13;;
70322;SDS011;57735;56.264;43.898;2022-12-10T10:41:00;18.60;;;7.15;;
70322;SDS011;57735;56.264;43.898;2022-12-10T10:43:41;24.83;;;6.72;;
70322;SDS011;57735;56.264;43.898;2022-12-10T10:46:21;25.23;;;7.65;;
70322;SDS011;57735;56.264;43.898;2022-12-10T10:48:53;16.73;;;6.65;;
70322;SDS011;57735;56.264;43.898;2022-12-10T10:51:44;17.17;;;6.60;;
70322;SDS011;57735;56.264;43.898;2022-12-10T11:00:32;18.73;;;6.32;;
70322;SDS011;57735;56.264;43.898;2022-12-10T11:02:56;17.25;;;6.53;;
70322;SDS011;57735;56.264;43.898;2022-12-10T11:05:31;13.30;;;5.55;;
70322;SDS011;57735;56.264;43.898;2022-12-10T11:08:05;19.00;;;6.25;;
70322;SDS011;57735;56.264;43.898;2022-12-10T11:10:55;17.98;;;6.22;;
70322;SDS011;57735;56.264;43.898;2022-12-10T11:13:33;15.43;;;7.03;;
70322;SDS011;57735;56.264;43.898;2022-12-10T11:18:55;14.63;;;5.65;;
70322;SDS011;57735;56.264;43.898;2022-12-10T11:21:35;16.23;;;5.82;;
70322;SDS011;57735;56.264;43.898;2022-12-10T11:24:11;13.98;;;5.45;;
70322;SDS011;57735;56.264;43.898;2022-12-10T11:29:49;13.18;;;5.32;;
70322;SDS011;57735;56.264;43.898;2022-12-10T11:35:19;17.60;;;7.20;;
70322;SDS011;57735;56.264;43.898;2022-12-10T11:54:37;20.85;;;6.78;;
70322;SDS011;57735;56.264;43.898;2022-12-10T12:00:14;16.50;;;6.25;;
70322;SDS011;57735;56.264;43.898;2022-12-10T12:02:51;13.35;;;6.28;;
70322;SDS011;57735;56.264;43.898;2022-12-10T12:05:31;22.48;;;7.80;;
70322;SDS011;57735;56.264;43.898;2022-12-10T12:11:01;18.05;;;6.38;;
70322;SDS011;57735;56.264;43.898;2022-12-10T12:16:54;10.80;;;4.57;;
70322;SDS011;57735;56.264;43.898;2022-12-10T12:19:39;13.07;;;5.03;;
70322;SDS011;57735;56.264;43.898;2022-12-10T12:22:16;12.85;;;4.63;;
70322;SDS011;57735;56.264;43.898;2022-12-10T12:25:02;11.45;;;5.50;;
70322;SDS011;57735;56.264;43.898;2022-12-10T12:27:39;13.25;;;5.75;;
70322;SDS011;57735;56.264;43.898;2022-12-10T12:30:19;16.73;;;6.45;;
70322;SDS011;57735;56.264;43.898;2022-12-10T12:33:00;16.73;;;6.65;;
70322;SDS011;57735;56.264;43.898;2022-12-10T12:35:40;14.45;;;6.47;;
70322;SDS011;57735;56.264;43.898;2022-12-10T12:41:21;19.77;;;7.65;;
70322;SDS011;57735;56.264;43.898;2022-12-10T12:44:26;18.60;;;7.22;;
70322;SDS011;57735;56.264;43.898;2022-12-10T12:47:02;19.20;;;6.07;;
70322;SDS011;57735;56.264;43.898;2022-12-10T12:49:46;15.23;;;6.40;;
70322;SDS011;57735;56.264;43.898;2022-12-10T12:54:52;19.25;;;7.05;;
70322;SDS011;57735;56.264;43.898;2022-12-10T12:57:30;18.70;;;6.60;;
70322;SDS011;57735;56.264;43.898;2022-12-10T13:00:17;13.45;;;6.43;;
70322;SDS011;57735;56.264;43.898;2022-12-10T13:05:48;14.25;;;6.47;;
70322;SDS011;57735;56.264;43.898;2022-12-10T13:13:40;18.90;;;7.38;;
70322;SDS011;57735;56.264;43.898;2022-12-10T13:22:11;17.15;;;7.00;;
70322;SDS011;57735;56.264;43.898;2022-12-10T13:25:13;21.27;;;7.20;;
70322;SDS011;57735;56.264;43.898;2022-12-10T13:27:56;16.92;;;7.55;;
70322;SDS011;57735;56.264;43.898;2022-12-10T13:30:54;16.75;;;7.07;;
70322;SDS011;57735;56.264;43.898;2022-12-10T13:37:02;17.58;;;6.97;;
70322;SDS011;57735;56.264;43.898;2022-12-10T13:39:47;10.48;;;4.95;;
70322;SDS011;57735;56.264;43.898;2022-12-10T13:42:28;15.73;;;6.47;;
70322;SDS011;57735;56.264;43.898;2022-12-10T13:48:15;10.73;;;5.10;;
70322;SDS011;57735;56.264;43.898;2022-12-10T13:50:59;10.85;;;5.20;;
70322;SDS011;57735;56.264;43.898;2022-12-10T13:53:45;10.32;;;4.45;;
70322;SDS011;57735;56.264;43.898;2022-12-10T13:56:51;13.30;;;5.18;;
70322;SDS011;57735;56.264;43.898;2022-12-10T14:05:38;11.93;;;4.82;;
70322;SDS011;57735;56.264;43.898;2022-12-10T14:08:22;14.43;;;5.45;;
70322;SDS011;57735;56.264;43.898;2022-12-10T14:10:57;11.35;;;5.05;;
70322;SDS011;57735;56.264;43.898;2022-12-10T14:13:32;11.80;;;5.60;;
70322;SDS011;57735;56.264;43.898;2022-12-10T14:16:11;11.38;;;5.68;;
70322;SDS011;57735;56.264;43.898;2022-12-10T14:18:46;10.98;;;5.18;;
70322;SDS011;57735;56.264;43.898;2022-12-10T14:21:25;13.00;;;6.00;;
70322;SDS011;57735;56.264;43.898;2022-12-10T14:24:01;12.45;;;6.05;;
70322;SDS011;57735;56.264;43.898;2022-12-10T14:26:33;13.80;;;6.10;;
70322;SDS011;57735;56.264;43.898;2022-12-10T14:31:39;19.30;;;8.23;;
70322;SDS011;57735;56.264;43.898;2022-12-10T14:34:16;17.55;;;7.75;;
70322;SDS011;57735;56.264;43.898;2022-12-10T14:36:52;18.08;;;7.32;;
70322;SDS011;57735;56.264;43.898;2022-12-10T14:39:30;18.10;;;8.15;;
70322;SDS011;57735;56.264;43.898;2022-12-10T14:42:04;28.30;;;9.75;;
70322;SDS011;57735;56.264;43.898;2022-12-10T14:44:37;25.52;;;8.95;;
70322;SDS011;57735;56.264;43.898;2022-12-10T14:47:18;19.40;;;8.35;;
70322;SDS011;57735;56.264;43.898;2022-12-10T14:49:53;20.88;;;8.20;;
70322;SDS011;57735;56.264;43.898;2022-12-10T14:52:31;16.35;;;7.32;;
70322;SDS011;57735;56.264;43.898;2022-12-10T14:55:05;18.58;;;7.65;;
70322;SDS011;57735;56.264;43.898;2022-12-10T14:57:42;16.33;;;7.50;;
70322;SDS011;57735;56.264;43.898;2022-12-10T15:00:19;16.42;;;6.55;;
70322;SDS011;57735;56.264;43.898;2022-12-10T15:03:07;18.13;;;6.90;;
70322;SDS011;57735;56.264;43.898;2022-12-10T15:05:58;11.10;;;5.47;;
70322;SDS011;57735;56.264;43.898;2022-12-10T15:08:32;16.38;;;6.10;;
70322;SDS011;57735;56.264;43.898;2022-12-10T15:11:06;16.88;;;6.50;;
70322;SDS011;57735;56.264;43.898;2022-12-10T15:13:38;15.38;;;6.75;;
70322;SDS011;57735;56.264;43.898;2022-12-10T15:16:19;16.38;;;6.10;;
70322;SDS011;57735;56.264;43.898;2022-12-10T15:19:09;16.25;;;6.50;;
70322;SDS011;57735;56.264;43.898;2022-12-10T15:21:48;15.00;;;6.90;;
70322;SDS011;57735;56.264;43.898;2022-12-10T15:24:27;16.75;;;6.10;;
70322;SDS011;57735;56.264;43.898;2022-12-10T15:27:19;15.05;;;6.63;;
70322;SDS011;57735;56.264;43.898;2022-12-10T15:29:51;18.02;;;6.97;;
70322;SDS011;57735;56.264;43.898;2022-12-10T15:32:26;20.15;;;10.23;;
70322;SDS011;57735;56.264;43.898;2022-12-10T15:34:59;25.00;;;10.35;;
70322;SDS011;57735;56.264;43.898;2022-12-10T15:37:35;19.30;;;9.00;;
70322;SDS011;57735;56.264;43.898;2022-12-10T15:40:23;18.77;;;8.48;;
70322;SDS011;57735;56.264;43.898;2022-12-10T15:45:48;16.20;;;7.25;;
70322;SDS011;57735;56.264;43.898;2022-12-10T15:48:20;13.95;;;6.80;;
70322;SDS011;57735;56.264;43.898;2022-12-10T15:50:55;14.07;;;6.63;;
70322;SDS011;57735;56.264;43.898;2022-12-10T15:53:28;11.77;;;5.60;;
70322;SDS011;57735;56.264;43.898;2022-12-10T15:56:06;9.82;;;5.35;;
70322;SDS011;57735;56.264;43.898;2022-12-10T15:58:37;13.15;;;5.82;;
70322;SDS011;57735;56.264;43.898;2022-12-10T16:01:12;12.35;;;5.53;;
70322;SDS011;57735;56.264;43.898;2022-12-10T16:03:45;13.02;;;5.72;;
70322;SDS011;57735;56.264;43.898;2022-12-10T16:06:16;13.57;;;6.25;;
70322;SDS011;57735;56.264;43.898;2022-12-10T16:08:49;15.27;;;6.57;;
70322;SDS011;57735;56.264;43.898;2022-12-10T16:11:19;11.70;;;5.80;;
70322;SDS011;57735;56.264;43.898;2022-12-10T16:13:52;17.00;;;6.63;;
70322;SDS011;57735;56.264;43.898;2022-12-10T16:16:25;12.18;;;5.82;;
70322;SDS011;57735;56.264;43.898;2022-12-10T16:18:56;11.98;;;5.70;;
70322;SDS011;57735;56.264;43.898;2022-12-10T16:21:27;12.05;;;5.82;;
70322;SDS011;57735;56.264;43.898;2022-12-10T16:24:00;13.70;;;5.85;;
70322;SDS011;57735;56.264;43.898;2022-12-10T16:26:31;10.82;;;5.50;;
70322;SDS011;57735;56.264;43.898;2022-12-10T16:29:02;12.55;;;5.55;;
70322;SDS011;57735;56.264;43.898;2022-12-10T16:31:33;12.82;;;5.88;;
70322;SDS011;57735;56.264;43.898;2022-12-10T16:34:06;11.80;;;5.45;;
70322;SDS011;57735;56.264;43.898;2022-12-10T16:36:37;9.07;;;5.43;;
70322;SDS011;57735;56.264;43.898;2022-12-10T16:39:08;13.45;;;6.10;;
70322;SDS011;57735;56.264;43.898;2022-12-10T16:41:39;12.05;;;5.75;;
70322;SDS011;57735;56.264;43.898;2022-12-10T16:44:10;13.98;;;6.07;;
70322;SDS011;57735;56.264;43.898;2022-12-10T16:46:41;11.27;;;5.63;;